createdAt,value
2018-01-13T00:00:28.524Z,196.20
2018-01-13T00:02:56.252Z,205.83
2018-01-13T00:05:24.972Z,176.50
2018-01-13T00:07:52.534Z,185.70
2018-01-13T00:10:20.013Z,166.87
2018-01-13T00:12:47.531Z,179.13
2018-01-13T00:15:16.213Z,178.60
2018-01-13T00:17:44.700Z,186.40
2018-01-13T00:20:12.515Z,191.53
2018-01-13T00:22:41.057Z,194.17
2018-01-13T00:25:09.424Z,203.13
2018-01-13T00:27:36.907Z,188.93
2018-01-13T00:30:04.395Z,171.17
2018-01-13T00:32:32.569Z,185.63
2018-01-13T00:35:00.128Z,207.67
2018-01-13T00:37:27.932Z,221.07
2018-01-13T00:39:56.182Z,200.73
2018-01-13T00:42:24.469Z,216.60
2018-01-13T00:44:52.755Z,219.37
2018-01-13T00:47:20.278Z,200.53
2018-01-13T00:49:47.792Z,202.87
2018-01-13T00:52:15.387Z,202.27
2018-01-13T00:54:42.871Z,198.00
2018-01-13T00:57:10.381Z,208.20
2018-01-13T00:59:38.227Z,172.57
2018-01-13T01:02:06.524Z,219.73
2018-01-13T01:04:34.005Z,184.33
2018-01-13T01:07:02.230Z,182.67
2018-01-13T01:09:31.351Z,193.13
2018-01-13T01:11:58.863Z,186.47
2018-01-13T01:14:26.414Z,184.67
2018-01-13T01:16:55.077Z,185.67
2018-01-13T01:19:23.422Z,163.07
2018-01-13T01:21:52.864Z,159.87
2018-01-13T01:24:21.539Z,164.50
2018-01-13T01:26:51.503Z,173.73
2018-01-13T01:29:18.954Z,158.10
2018-01-13T01:31:47.231Z,166.83
2018-01-13T01:34:14.729Z,137.70
2018-01-13T01:36:43.907Z,153.37
2018-01-13T01:39:12.142Z,144.20
2018-01-13T01:41:40.395Z,148.20
2018-01-13T01:44:08.624Z,176.77
2018-01-13T01:46:37.364Z,192.97
2018-01-13T01:49:04.971Z,197.17
2018-01-13T01:51:32.451Z,187.03
2018-01-13T01:54:00.701Z,169.57
2018-01-13T01:56:28.251Z,178.83
2018-01-13T01:58:56.387Z,174.60
2018-01-13T02:01:23.854Z,176.30
2018-01-13T02:03:51.338Z,174.77
2018-01-13T02:06:18.821Z,176.73
2018-01-13T02:08:46.339Z,178.87
2018-01-13T02:11:13.826Z,189.17
2018-01-13T02:13:41.309Z,196.17
2018-01-13T02:16:09.534Z,218.10
2018-01-13T02:18:37.064Z,176.00
2018-01-13T02:21:05.328Z,168.13
2018-01-13T02:23:33.591Z,189.90
2018-01-13T02:26:01.050Z,180.27
2018-01-13T02:28:28.534Z,202.80
2018-01-13T02:30:56.828Z,227.83
2018-01-13T02:33:24.303Z,184.47
2018-01-13T02:35:51.789Z,182.43
2018-01-13T02:38:19.247Z,186.97
2018-01-13T02:40:46.727Z,172.33
2018-01-13T02:43:14.951Z,169.10
2018-01-13T02:45:42.477Z,174.17
2018-01-13T02:48:10.728Z,201.37
2018-01-13T02:50:38.209Z,220.10
2018-01-13T02:53:06.479Z,260.67
2018-01-13T02:55:34.733Z,243.30
2018-01-13T02:58:02.217Z,237.80
2018-01-13T03:00:30.461Z,251.43
2018-01-13T03:02:57.982Z,236.00
2018-01-13T03:05:25.466Z,254.73
2018-01-13T03:07:53.710Z,261.07
2018-01-13T03:10:21.165Z,212.07
2018-01-13T03:12:48.686Z,225.17
2018-01-13T03:15:16.229Z,261.57
2018-01-13T03:17:43.718Z,237.57
2018-01-13T03:20:11.964Z,215.97
2018-01-13T03:22:39.460Z,243.83
2018-01-13T03:25:06.921Z,209.70
2018-01-13T03:27:35.172Z,273.17
2018-01-13T03:30:02.643Z,278.33
2018-01-13T03:32:30.886Z,280.20
2018-01-13T03:34:58.520Z,278.50
2018-01-13T03:37:25.988Z,278.30
2018-01-13T03:39:53.523Z,306.80
2018-01-13T03:42:21.747Z,348.10
2018-01-13T03:44:49.233Z,342.00
2018-01-13T03:47:16.693Z,306.00
2018-01-13T03:49:44.173Z,316.20
2018-01-13T03:52:12.398Z,313.40
2018-01-13T03:54:39.882Z,327.37
2018-01-13T03:57:07.353Z,279.20
2018-01-13T03:59:35.616Z,291.27
2018-01-13T04:02:03.103Z,242.83
2018-01-13T04:04:30.589Z,260.63
2018-01-13T04:06:58.065Z,280.47
2018-01-13T04:09:25.545Z,260.53
2018-01-13T04:11:53.039Z,218.87
2018-01-13T04:14:20.535Z,193.30
2018-01-13T04:16:48.015Z,232.40
2018-01-13T04:19:15.482Z,231.93
2018-01-13T04:21:42.985Z,205.70
2018-01-13T04:24:10.478Z,194.80
2018-01-13T04:26:37.957Z,224.33
2018-01-13T04:29:05.421Z,207.47
2018-01-13T04:31:33.658Z,211.27
2018-01-13T04:34:01.138Z,209.03
2018-01-13T04:36:29.391Z,187.37
2018-01-13T04:38:56.989Z,178.03
2018-01-13T04:41:24.440Z,185.37
2018-01-13T04:43:51.925Z,220.67
2018-01-13T04:46:20.150Z,207.83
2018-01-13T04:48:47.630Z,249.80
2018-01-13T04:51:15.108Z,217.53
2018-01-13T04:53:42.590Z,240.27
2018-01-13T04:56:10.076Z,234.00
2018-01-13T04:58:37.550Z,242.27
2018-01-13T05:01:05.015Z,239.00
2018-01-13T05:03:32.508Z,202.67
2018-01-13T05:06:00.743Z,212.07
2018-01-13T05:08:28.230Z,221.40
2018-01-13T05:10:55.689Z,173.40
2018-01-13T05:13:23.942Z,166.17
2018-01-13T05:15:51.426Z,167.23
2018-01-13T05:18:18.905Z,161.57
2018-01-13T05:20:46.748Z,150.60
2018-01-13T05:23:14.415Z,153.00
2018-01-13T05:25:42.681Z,167.13
2018-01-13T05:28:10.201Z,191.07
2018-01-13T05:30:37.701Z,171.93
2018-01-13T05:33:05.186Z,189.53
2018-01-13T05:35:32.674Z,183.83
2018-01-13T05:38:00.157Z,158.93
2018-01-13T05:40:27.647Z,180.47
2018-01-13T05:42:55.958Z,220.37
2018-01-13T05:45:24.170Z,248.27
2018-01-13T05:47:51.707Z,227.27
2018-01-13T05:50:19.190Z,261.43
2018-01-13T05:52:46.681Z,281.03
2018-01-13T05:55:14.914Z,265.43
2018-01-13T05:57:42.416Z,300.97
2018-01-13T06:00:10.698Z,308.07
2018-01-13T06:02:38.935Z,348.77
2018-01-13T06:05:06.405Z,319.57
2018-01-13T06:07:33.941Z,320.63
2018-01-13T06:10:01.437Z,323.63
2018-01-13T06:12:29.735Z,320.10
2018-01-13T06:14:57.162Z,327.87
2018-01-13T06:17:24.667Z,288.63
2018-01-13T06:19:52.135Z,280.53
2018-01-13T06:22:19.680Z,315.20
2018-01-13T06:24:47.180Z,319.40
2018-01-13T06:27:14.667Z,365.73
2018-01-13T06:29:42.160Z,315.77
2018-01-13T06:32:09.684Z,339.27
2018-01-13T06:34:37.949Z,319.77
2018-01-13T06:37:06.210Z,298.07
2018-01-13T06:39:33.717Z,333.07
2018-01-13T06:42:01.219Z,361.50
2018-01-13T06:44:28.722Z,337.13
2018-01-13T06:46:56.193Z,343.23
2018-01-13T06:49:24.471Z,297.13
2018-01-13T06:51:52.709Z,309.63
2018-01-13T06:54:20.202Z,276.83
2018-01-13T06:56:48.442Z,268.33
2018-01-13T06:59:15.929Z,275.23
2018-01-13T07:01:43.407Z,247.23
2018-01-13T07:04:10.861Z,230.53
2018-01-13T07:06:38.437Z,194.50
2018-01-13T07:09:05.901Z,200.40
2018-01-13T07:11:33.383Z,289.97
2018-01-13T07:14:01.117Z,257.50
2018-01-13T07:16:28.638Z,201.20
2018-01-13T07:18:56.114Z,201.10
2018-01-13T07:21:24.380Z,173.63
2018-01-13T07:23:52.609Z,188.53
2018-01-13T07:26:24.109Z,190.67
2018-01-13T07:28:52.386Z,166.37
2018-01-13T07:31:19.897Z,174.53
2018-01-13T07:33:47.410Z,152.60
2018-01-13T07:36:15.666Z,170.97
2018-01-13T07:38:43.148Z,138.07
2018-01-13T07:41:12.022Z,125.17
2018-01-13T07:43:39.522Z,141.20
2018-01-13T07:46:08.046Z,99.33
2018-01-13T07:48:35.789Z,104.23
2018-01-13T07:51:03.298Z,98.77
2018-01-13T07:53:31.591Z,108.33
2018-01-13T07:55:59.898Z,86.37
2018-01-13T07:58:27.401Z,95.03
2018-01-13T08:00:54.907Z,89.70
2018-01-13T08:03:22.548Z,84.07
2018-01-13T08:05:50.354Z,88.23
2018-01-13T08:08:17.843Z,78.30
2018-01-13T08:10:47.096Z,62.63
2018-01-13T08:13:14.653Z,58.93
2018-01-13T08:15:42.169Z,50.90
2018-01-13T08:18:09.914Z,58.43
2018-01-13T08:20:37.403Z,48.80
2018-01-13T08:23:05.639Z,49.60
2018-01-13T08:25:33.116Z,45.83
2018-01-13T08:28:00.613Z,43.40
2018-01-13T08:30:28.201Z,52.33
2018-01-13T08:32:55.681Z,51.57
2018-01-13T08:35:23.296Z,40.57
2018-01-13T08:37:50.900Z,50.23
2018-01-13T08:40:18.411Z,43.37
2018-01-13T08:42:46.786Z,43.97
2018-01-13T08:45:15.100Z,44.20
2018-01-13T08:47:42.578Z,43.53
2018-01-13T08:50:10.059Z,39.70
2018-01-13T08:52:37.562Z,49.30
2018-01-13T08:55:05.031Z,47.93
2018-01-13T08:57:32.601Z,37.10
2018-01-13T09:00:00.113Z,46.97
2018-01-13T09:02:29.367Z,46.70
2018-01-13T09:04:57.166Z,43.23
2018-01-13T09:07:25.018Z,51.33
2018-01-13T09:09:52.528Z,44.97
2018-01-13T09:12:20.236Z,39.13
2018-01-13T09:14:47.728Z,45.13
2018-01-13T09:17:15.998Z,44.63
2018-01-13T09:19:44.514Z,35.60
2018-01-13T09:22:12.055Z,36.00
2018-01-13T09:24:39.625Z,45.40
2018-01-13T09:27:07.120Z,35.97
2018-01-13T09:29:34.714Z,32.73
2018-01-13T09:32:03.066Z,45.87
2018-01-13T09:34:30.566Z,40.43
2018-01-13T09:36:58.809Z,41.00
2018-01-13T09:39:26.355Z,39.17
2018-01-13T09:41:53.825Z,40.70
2018-01-13T09:44:21.326Z,48.30
2018-01-13T09:46:49.655Z,43.80
2018-01-13T09:49:17.176Z,65.80
2018-01-13T09:51:44.709Z,47.00
2018-01-13T09:54:13.059Z,44.47
2018-01-13T09:56:40.589Z,36.67
2018-01-13T09:59:08.083Z,44.20
2018-01-13T10:01:36.056Z,51.33
2018-01-13T10:04:03.571Z,47.17
2018-01-13T10:06:31.067Z,46.53
2018-01-13T10:08:58.612Z,48.27
2018-01-13T10:11:27.740Z,40.43
2018-01-13T10:13:55.252Z,46.00
2018-01-13T10:16:23.240Z,46.90
2018-01-13T10:18:50.855Z,43.27
2018-01-13T10:21:18.434Z,47.77
2018-01-13T10:23:45.909Z,50.37
2018-01-13T10:26:13.398Z,36.43
2018-01-13T10:28:40.949Z,36.93
2018-01-13T10:31:08.442Z,40.33
2018-01-13T10:33:36.705Z,39.47
2018-01-13T10:36:04.198Z,43.60
2018-01-13T10:38:31.677Z,51.23
2018-01-13T10:40:59.215Z,42.10
2018-01-13T10:43:26.776Z,34.37
2018-01-13T10:45:54.261Z,38.37
2018-01-13T10:48:21.902Z,32.53
2018-01-13T10:50:49.370Z,36.43
2018-01-13T10:53:16.868Z,38.63
2018-01-13T10:55:44.381Z,35.60
2018-01-13T10:58:11.870Z,33.73
2018-01-13T11:00:39.364Z,39.70
2018-01-13T11:03:10.007Z,36.03
2018-01-13T11:05:38.446Z,35.07
2018-01-13T11:08:06.231Z,34.03
2018-01-13T11:10:40.679Z,28.47
2018-01-13T11:13:08.917Z,34.40
2018-01-13T11:15:36.470Z,27.70
2018-01-13T11:18:03.933Z,33.93
2018-01-13T11:20:32.773Z,36.67
2018-01-13T11:23:00.511Z,30.03
2018-01-13T11:25:28.093Z,33.47
2018-01-13T11:27:56.759Z,36.80
2018-01-13T11:30:25.068Z,36.80
2018-01-13T11:32:52.693Z,34.40
2018-01-13T11:35:21.048Z,36.23
2018-01-13T11:37:48.518Z,28.47
2018-01-13T11:40:15.993Z,32.40
2018-01-13T11:42:44.278Z,32.17
2018-01-13T11:45:12.697Z,29.97
2018-01-13T11:47:41.075Z,27.57
2018-01-13T11:50:08.588Z,29.03
2018-01-13T11:52:36.852Z,30.87
2018-01-13T11:55:05.124Z,26.37
2018-01-13T11:57:32.937Z,33.63
2018-01-13T12:00:01.313Z,29.70
2018-01-13T12:02:31.258Z,31.40
2018-01-13T12:05:08.210Z,25.37
2018-01-13T12:07:41.221Z,30.53
2018-01-13T12:10:18.283Z,27.00
2018-01-13T12:12:50.438Z,34.60
2018-01-13T12:15:24.137Z,31.70
2018-01-13T12:17:56.337Z,21.87
2018-01-13T12:23:03.430Z,27.90
2018-01-13T12:25:37.937Z,28.27
2018-01-13T12:28:10.834Z,28.83
2018-01-13T12:30:44.528Z,29.73
2018-01-13T12:33:19.050Z,27.47
2018-01-13T12:41:13.475Z,25.70
2018-01-13T12:43:47.022Z,33.50
2018-01-13T12:46:20.203Z,25.53
2018-01-13T12:48:55.931Z,20.13
2018-01-13T12:51:35.849Z,24.93
2018-01-13T12:54:07.354Z,36.33
2018-01-13T12:56:44.143Z,23.83
2018-01-13T12:59:15.261Z,21.03
2018-01-13T13:01:45.496Z,24.20
2018-01-13T13:04:15.103Z,33.43
2018-01-13T13:06:47.682Z,27.57
2018-01-13T13:09:20.639Z,28.97
2018-01-13T13:11:54.274Z,29.27
2018-01-13T13:14:40.873Z,22.90
2018-01-13T13:17:12.430Z,28.20
2018-01-13T13:19:44.913Z,25.90
2018-01-13T13:22:20.247Z,28.90
2018-01-13T13:24:51.183Z,29.43
2018-01-13T13:27:27.344Z,29.60
2018-01-13T13:29:59.205Z,27.30
2018-01-13T13:32:33.113Z,35.13
2018-01-13T13:35:10.098Z,33.13
2018-01-13T13:37:43.079Z,25.10
2018-01-13T13:40:13.098Z,30.57
2018-01-13T13:42:50.029Z,32.57
2018-01-13T13:45:28.474Z,28.67
2018-01-13T13:48:04.123Z,28.87
2018-01-13T13:50:39.883Z,28.37
2018-01-13T13:59:06.778Z,32.13
2018-01-13T14:04:39.789Z,22.70
2018-01-13T14:10:01.602Z,22.63
2018-01-13T14:12:35.630Z,18.70
2018-01-13T14:15:16.606Z,15.67
2018-01-13T14:18:06.746Z,19.70
2018-01-13T14:20:52.082Z,16.80
2018-01-13T14:23:35.937Z,23.73
2018-01-13T14:31:52.764Z,25.33
2018-01-13T14:34:34.354Z,17.73
2018-01-13T14:37:16.149Z,17.93
2018-01-13T14:39:51.821Z,16.67
2018-01-13T14:42:36.278Z,18.23
2018-01-13T14:45:19.487Z,19.83
2018-01-13T14:47:55.555Z,15.20
2018-01-13T14:50:32.729Z,16.23
2018-01-13T14:53:06.474Z,17.47
2018-01-13T14:55:46.178Z,20.87
2018-01-13T14:58:25.927Z,21.40
2018-01-13T15:00:56.573Z,17.03
2018-01-13T15:03:32.758Z,18.77
2018-01-13T15:06:08.277Z,12.53
2018-01-13T15:08:41.166Z,15.80
2018-01-13T15:11:16.407Z,18.50
2018-01-13T15:13:50.502Z,17.17
2018-01-13T15:16:25.644Z,12.83
2018-01-13T15:19:00.897Z,17.30
2018-01-13T15:21:40.726Z,18.90
2018-01-13T15:24:23.652Z,11.03
2018-01-13T15:27:07.382Z,20.83
2018-01-13T15:29:41.506Z,19.00
2018-01-13T15:32:26.896Z,21.53
2018-01-13T15:34:58.530Z,17.53
2018-01-13T15:40:15.984Z,16.17
2018-01-13T15:42:49.982Z,21.60
2018-01-13T15:45:23.513Z,14.20
2018-01-13T15:47:56.737Z,22.90
2018-01-13T15:50:32.568Z,23.03
2018-01-13T15:53:07.944Z,21.90
2018-01-13T15:55:46.384Z,20.07
2018-01-13T15:58:27.870Z,28.70
2018-01-13T16:00:59.960Z,19.57
2018-01-13T16:03:33.559Z,25.60
2018-01-13T16:06:06.320Z,21.93
2018-01-13T16:08:39.306Z,12.97
2018-01-13T16:11:11.742Z,28.47
2018-01-13T16:13:44.007Z,23.00
2018-01-13T16:16:16.960Z,16.00
2018-01-13T16:21:41.031Z,18.60
2018-01-13T16:24:17.092Z,27.77
2018-01-13T16:26:53.052Z,23.27
2018-01-13T16:29:24.543Z,17.43
2018-01-13T16:31:56.568Z,23.10
2018-01-13T16:34:29.905Z,28.63
2018-01-13T16:39:52.091Z,22.63
2018-01-13T16:42:26.070Z,16.77
2018-01-13T16:45:03.554Z,23.67
2018-01-13T16:47:35.175Z,27.10
2018-01-13T16:50:09.061Z,23.80
2018-01-13T16:52:43.501Z,21.50
2018-01-13T16:55:15.781Z,21.97
2018-01-13T16:57:52.358Z,26.17
2018-01-13T17:00:26.066Z,26.43
2018-01-13T17:02:59.907Z,34.07
2018-01-13T17:05:33.491Z,33.37
2018-01-13T17:08:01.052Z,36.27
2018-01-13T17:10:29.331Z,34.50
2018-01-13T17:12:57.585Z,34.47
2018-01-13T17:15:25.063Z,42.27
2018-01-13T17:17:53.322Z,40.23
2018-01-13T17:20:21.553Z,38.10
2018-01-13T17:22:49.037Z,45.77
2018-01-13T17:25:16.541Z,43.33
2018-01-13T17:27:44.778Z,39.93
2018-01-13T17:30:12.561Z,39.67
2018-01-13T17:32:40.177Z,43.17
2018-01-13T17:35:07.783Z,40.73
2018-01-13T17:37:35.215Z,36.33
2018-01-13T17:40:02.695Z,43.90
2018-01-13T17:42:30.173Z,34.63
2018-01-13T17:44:58.461Z,39.30
2018-01-13T17:47:25.923Z,43.00
2018-01-13T17:49:54.347Z,39.10
2018-01-13T17:52:21.867Z,43.63
2018-01-13T17:54:50.070Z,40.40
2018-01-13T17:57:18.003Z,39.10
2018-01-13T17:59:46.435Z,31.37
2018-01-13T18:02:13.943Z,35.30
2018-01-13T18:04:42.430Z,46.90
2018-01-13T18:07:09.911Z,29.33
2018-01-13T18:09:38.439Z,32.00
2018-01-13T18:12:07.667Z,29.40
2018-01-13T18:14:35.150Z,43.43
2018-01-13T18:17:03.407Z,30.13
2018-01-13T18:19:33.706Z,34.03
2018-01-13T18:22:01.170Z,42.33
2018-01-13T18:24:31.056Z,43.60
2018-01-13T18:27:01.258Z,32.97
2018-01-13T18:29:29.598Z,42.67
2018-01-13T18:32:00.796Z,37.03
2018-01-13T18:34:28.272Z,41.23
2018-01-13T18:36:55.739Z,32.77
2018-01-13T18:39:24.603Z,40.83
2018-01-13T18:41:52.206Z,38.20
2018-01-13T18:44:21.256Z,42.00
2018-01-13T18:46:50.943Z,38.40
2018-01-13T18:49:19.227Z,36.40
2018-01-13T18:51:47.154Z,40.37
2018-01-13T18:54:16.307Z,27.40
2018-01-13T18:56:46.817Z,35.33
2018-01-13T18:59:15.766Z,35.60
2018-01-13T19:01:45.810Z,35.53
2018-01-13T19:04:15.304Z,36.90
2018-01-13T19:06:43.990Z,31.10
2018-01-13T19:09:12.333Z,37.20
2018-01-13T19:11:41.503Z,38.90
2018-01-13T19:14:09.361Z,34.27
2018-01-13T19:16:37.514Z,43.90
2018-01-13T19:19:08.156Z,36.07
2018-01-13T19:21:36.980Z,38.93
2018-01-13T19:24:05.597Z,30.13
2018-01-13T19:26:34.119Z,39.17
2018-01-13T19:29:01.761Z,36.13
2018-01-13T19:31:32.635Z,35.90
2018-01-13T19:34:02.328Z,37.70
2018-01-13T19:36:29.917Z,32.13
2018-01-13T19:38:58.586Z,30.60
2018-01-13T19:41:27.558Z,33.93
2018-01-13T19:43:57.458Z,34.33
2018-01-13T19:46:26.917Z,31.83
2018-01-13T19:48:55.004Z,27.07
2018-01-13T19:51:24.014Z,30.17
2018-01-13T19:53:52.109Z,28.73
2018-01-13T19:56:20.514Z,33.43
2018-01-13T19:58:48.015Z,36.40
2018-01-13T20:01:15.485Z,34.13
2018-01-13T20:03:43.120Z,28.43
2018-01-13T20:06:10.605Z,33.40
2018-01-13T20:08:38.924Z,30.77
2018-01-13T20:11:06.425Z,31.93
2018-01-13T20:13:33.887Z,23.97
2018-01-13T20:16:01.363Z,29.67
2018-01-13T20:18:29.633Z,30.90
2018-01-13T20:20:57.091Z,30.00
2018-01-13T20:23:24.586Z,30.33
2018-01-13T20:25:52.068Z,30.63
2018-01-13T20:28:19.553Z,27.53
2018-01-13T20:30:47.022Z,30.67
2018-01-13T20:33:14.584Z,31.03
2018-01-13T20:35:42.028Z,28.20
2018-01-13T20:38:09.492Z,33.33
2018-01-13T20:40:37.153Z,30.87
2018-01-13T20:43:05.165Z,30.43
2018-01-13T20:45:33.414Z,33.87
2018-01-13T20:48:01.166Z,32.13
2018-01-13T20:50:30.434Z,31.63
2018-01-13T20:52:58.007Z,28.77
2018-01-13T20:55:25.512Z,29.90
2018-01-13T20:57:53.745Z,35.17
2018-01-13T21:00:21.301Z,43.77
2018-01-13T21:02:48.977Z,31.40
2018-01-13T21:05:16.767Z,32.23
2018-01-13T21:07:45.040Z,31.27
2018-01-13T21:10:12.515Z,28.80
2018-01-13T21:12:40.759Z,41.20
2018-01-13T21:15:08.385Z,38.30
2018-01-13T21:17:37.145Z,31.97
2018-01-13T21:20:04.831Z,37.27
2018-01-13T21:22:32.319Z,33.60
2018-01-13T21:24:59.834Z,31.30
2018-01-13T21:27:27.701Z,33.23
2018-01-13T21:29:56.030Z,30.20
2018-01-13T21:32:23.546Z,33.73
2018-01-13T21:34:52.038Z,30.57
2018-01-13T21:37:20.543Z,33.43
2018-01-13T21:39:48.898Z,33.50
2018-01-13T21:42:16.376Z,28.37
2018-01-13T21:44:43.853Z,30.57
2018-01-13T21:47:11.434Z,35.80
2018-01-13T21:49:38.997Z,29.47
2018-01-13T21:52:06.475Z,34.67
2018-01-13T21:54:34.834Z,32.13
2018-01-13T21:57:02.494Z,37.53
2018-01-13T21:59:30.874Z,36.30
2018-01-13T22:01:58.346Z,36.30
2018-01-13T22:04:25.825Z,37.13
2018-01-13T22:06:54.048Z,28.33
2018-01-13T22:09:21.596Z,39.10
2018-01-13T22:11:49.098Z,35.97
2018-01-13T22:14:16.682Z,37.37
2018-01-13T22:16:44.367Z,35.87
2018-01-13T22:19:11.846Z,31.97
2018-01-13T22:21:39.316Z,45.20
2018-01-13T22:24:06.801Z,34.53
2018-01-13T22:26:34.393Z,39.37
2018-01-13T22:29:01.934Z,33.03
2018-01-13T22:31:30.188Z,35.37
2018-01-13T22:33:57.670Z,33.23
2018-01-13T22:36:25.149Z,36.03
2018-01-13T22:38:52.618Z,39.03
2018-01-13T22:41:20.104Z,36.47
2018-01-13T22:43:47.564Z,39.20
2018-01-13T22:46:15.846Z,36.20
2018-01-13T22:48:43.317Z,40.10
2018-01-13T22:51:11.590Z,34.00
2018-01-13T22:53:39.057Z,34.10
2018-01-13T22:56:07.282Z,32.63
2018-01-13T22:58:34.778Z,39.23
2018-01-13T23:01:02.288Z,38.60
2018-01-13T23:03:29.754Z,37.67
2018-01-13T23:05:57.222Z,32.07
2018-01-13T23:08:24.701Z,37.57
2018-01-13T23:10:52.194Z,36.07
2018-01-13T23:13:20.442Z,39.83
2018-01-13T23:15:47.943Z,40.40
2018-01-13T23:18:16.317Z,30.67
2018-01-13T23:20:44.530Z,36.23
2018-01-13T23:23:12.024Z,34.43
2018-01-13T23:25:39.617Z,34.30
2018-01-13T23:28:07.125Z,35.67
2018-01-13T23:30:34.599Z,33.93
2018-01-13T23:33:02.081Z,37.10
2018-01-13T23:35:30.323Z,35.70
2018-01-13T23:37:57.795Z,37.30
2018-01-13T23:40:26.064Z,38.03
2018-01-13T23:42:53.582Z,37.03
2018-01-13T23:45:21.050Z,37.47
2018-01-13T23:47:48.536Z,36.87
2018-01-13T23:50:16.001Z,29.87
2018-01-13T23:52:44.243Z,35.10
2018-01-13T23:55:11.870Z,37.87
2018-01-13T23:57:39.365Z,32.23
